createdAt,value
2023-03-02T00:01:55.352Z,1.77
2023-03-02T00:04:48.420Z,1.84
2023-03-02T00:07:22.946Z,1.66
2023-03-02T00:09:52.087Z,1.65
2023-03-02T00:12:19.859Z,1.76
2023-03-02T00:14:47.551Z,1.88
2023-03-02T00:17:15.661Z,1.75
2023-03-02T00:19:45.089Z,1.73
2023-03-02T00:22:13.021Z,1.71
2023-03-02T00:24:41.260Z,1.53
2023-03-02T00:27:08.897Z,1.67
2023-03-02T00:29:36.843Z,1.56
2023-03-02T00:32:09.207Z,1.51
2023-03-02T00:34:39.216Z,1.32
2023-03-02T00:37:06.828Z,1.31
2023-03-02T00:39:34.667Z,1.45
2023-03-02T00:42:02.277Z,1.21
2023-03-02T00:44:30.064Z,1.13
2023-03-02T00:46:57.918Z,1.29
2023-03-02T00:49:25.960Z,1.20
2023-03-02T00:51:58.987Z,1.27
2023-03-02T00:54:26.658Z,1.16
2023-03-02T00:56:54.506Z,1.24
2023-03-02T00:59:28.329Z,1.13
2023-03-02T01:02:21.940Z,1.18
2023-03-02T01:04:50.792Z,1.22
2023-03-02T01:07:20.938Z,1.17
2023-03-02T01:09:48.974Z,1.10
2023-03-02T01:12:16.642Z,1.16
2023-03-02T01:14:47.783Z,1.08
2023-03-02T01:17:15.740Z,1.22
2023-03-02T01:19:43.501Z,0.99
2023-03-02T01:22:11.299Z,1.17
2023-03-02T01:24:43.699Z,1.04
2023-03-02T01:27:11.391Z,1.07
2023-03-02T01:29:38.934Z,1.16
2023-03-02T01:32:06.659Z,1.16
2023-03-02T01:34:34.353Z,1.11
2023-03-02T01:37:02.637Z,0.99
2023-03-02T01:39:30.622Z,1.19
2023-03-02T01:41:59.402Z,0.99
2023-03-02T01:44:50.375Z,0.84
2023-03-02T01:47:25.944Z,0.98
2023-03-02T01:50:19.344Z,0.87
2023-03-02T01:52:47.476Z,0.74
2023-03-02T01:55:17.964Z,0.85
2023-03-02T01:57:47.187Z,0.54
2023-03-02T02:00:19.546Z,0.68
2023-03-02T02:02:47.915Z,0.74
2023-03-02T02:05:23.636Z,0.78
2023-03-02T02:07:53.202Z,0.70
2023-03-02T02:10:22.700Z,0.61
2023-03-02T02:12:51.503Z,0.55
2023-03-02T02:15:19.107Z,0.64
2023-03-02T02:17:46.767Z,0.49
2023-03-02T02:20:24.266Z,0.54
2023-03-02T02:22:57.701Z,0.42
2023-03-02T02:25:40.991Z,0.46
2023-03-02T02:28:22.500Z,0.36
2023-03-02T02:30:52.201Z,0.48
2023-03-02T02:33:21.554Z,0.45
2023-03-02T02:35:49.174Z,0.25
2023-03-02T02:38:18.653Z,0.24
2023-03-02T02:40:54.638Z,0.25
2023-03-02T02:43:27.218Z,0.39
2023-03-02T02:45:56.247Z,0.32
2023-03-02T02:48:27.171Z,0.13
2023-03-02T02:51:00.683Z,0.15
2023-03-02T02:53:38.856Z,0.42
2023-03-02T02:56:07.410Z,0.28
2023-03-02T02:58:42.291Z,0.21
2023-03-02T03:01:18.095Z,0.17
2023-03-02T03:04:06.595Z,0.39
2023-03-02T03:06:44.686Z,0.12
2023-03-02T03:09:13.262Z,0.08
2023-03-02T03:11:55.486Z,0.02
2023-03-02T03:14:34.674Z,0.18
2023-03-02T03:17:02.470Z,0.10
2023-03-02T03:19:31.895Z,0.05
2023-03-02T03:22:02.127Z,0.13
2023-03-02T03:24:39.110Z,0.06
2023-03-02T03:27:07.501Z,0.21
2023-03-02T03:29:39.329Z,-0.09
2023-03-02T03:32:10.524Z,0.04
2023-03-02T03:34:41.869Z,0.06
2023-03-02T03:37:22.371Z,0.10
2023-03-02T03:39:50.873Z,0.17
2023-03-02T03:42:19.205Z,0.17
2023-03-02T03:44:47.589Z,-0.04
2023-03-02T03:47:15.557Z,-0.06
2023-03-02T03:49:43.657Z,-0.15
2023-03-02T03:52:11.731Z,-0.06
2023-03-02T03:54:40.010Z,-0.09
2023-03-02T03:57:11.400Z,-0.11
2023-03-02T03:59:39.597Z,-0.05
2023-03-02T04:02:11.226Z,-0.09
2023-03-02T04:04:42.689Z,0.08
2023-03-02T04:07:16.944Z,-0.03
2023-03-02T04:09:47.628Z,-0.03
2023-03-02T04:12:22.196Z,0.06
2023-03-02T04:14:53.248Z,0.02
2023-03-02T04:17:20.868Z,0.24
2023-03-02T04:19:53.388Z,0.31
2023-03-02T04:22:21.523Z,0.26
2023-03-02T04:24:49.502Z,0.33
2023-03-02T04:27:17.614Z,0.26
2023-03-02T04:29:46.617Z,0.30
2023-03-02T04:32:17.477Z,0.22
2023-03-02T04:34:49.844Z,0.34
2023-03-02T04:37:17.518Z,0.36
2023-03-02T04:39:50.228Z,0.33
2023-03-02T04:42:21.207Z,0.59
2023-03-02T04:44:49.067Z,0.35
2023-03-02T04:47:16.697Z,0.66
2023-03-02T04:49:44.314Z,0.79
2023-03-02T04:52:13.331Z,0.95
2023-03-02T04:54:41.438Z,0.82
2023-03-02T04:57:10.162Z,0.88
2023-03-02T04:59:39.732Z,0.75
2023-03-02T05:02:07.536Z,0.87
2023-03-02T05:04:38.175Z,0.92
2023-03-02T05:07:07.030Z,0.99
2023-03-02T05:09:35.648Z,1.13
2023-03-02T05:12:03.636Z,1.46
2023-03-02T05:14:31.545Z,1.24
2023-03-02T05:16:59.762Z,1.20
2023-03-02T05:19:27.664Z,1.32
2023-03-02T05:21:56.930Z,1.26
2023-03-02T05:24:25.487Z,1.45
2023-03-02T05:26:54.619Z,1.45
2023-03-02T05:29:22.432Z,1.43
2023-03-02T05:31:50.415Z,1.59
2023-03-02T05:34:18.334Z,1.64
2023-03-02T05:36:50.032Z,1.60
2023-03-02T05:39:20.102Z,1.72
2023-03-02T05:41:47.959Z,1.75
2023-03-02T05:44:15.739Z,1.79
2023-03-02T05:46:45.028Z,2.02
2023-03-02T05:49:13.574Z,2.00
2023-03-02T05:51:41.347Z,2.03
2023-03-02T05:54:09.385Z,2.19
2023-03-02T05:56:37.193Z,2.31
2023-03-02T05:59:05.026Z,2.06
2023-03-02T06:01:33.234Z,2.40
2023-03-02T06:04:01.258Z,2.42
2023-03-02T06:06:29.549Z,2.56
2023-03-02T06:08:57.826Z,2.65
2023-03-02T06:11:25.520Z,2.47
2023-03-02T06:13:53.595Z,2.52
2023-03-02T06:16:21.851Z,2.81
2023-03-02T06:18:50.430Z,2.75
2023-03-02T06:21:18.946Z,2.83
2023-03-02T06:23:47.137Z,3.06
2023-03-02T06:26:14.902Z,3.15
2023-03-02T06:28:51.988Z,2.85
2023-03-02T06:31:21.988Z,3.15
2023-03-02T06:33:49.980Z,3.22
2023-03-02T06:36:18.793Z,3.30
2023-03-02T06:38:46.659Z,3.41
2023-03-02T06:41:14.537Z,3.59
2023-03-02T06:43:42.288Z,3.73
2023-03-02T06:46:10.061Z,3.84
2023-03-02T06:48:38.164Z,3.88
2023-03-02T06:51:12.828Z,3.90
2023-03-02T06:53:41.353Z,4.22
2023-03-02T06:56:13.286Z,4.16
2023-03-02T06:58:41.866Z,4.35
2023-03-02T07:04:29.694Z,4.31
2023-03-02T07:06:57.634Z,4.54
2023-03-02T07:12:32.756Z,4.68
2023-03-02T07:15:05.626Z,4.46
2023-03-02T07:17:35.567Z,4.77
2023-03-02T07:20:06.208Z,4.90
2023-03-02T07:22:36.749Z,5.27
2023-03-02T07:25:11.053Z,4.93
2023-03-02T07:27:49.839Z,4.91
2023-03-02T07:30:21.388Z,4.97
2023-03-02T07:32:49.441Z,5.23
2023-03-02T07:35:17.669Z,5.20
2023-03-02T07:37:45.510Z,5.26
2023-03-02T07:40:13.918Z,5.33
2023-03-02T07:42:43.075Z,5.16
2023-03-02T07:45:20.783Z,5.10
2023-03-02T07:47:48.758Z,5.46
2023-03-02T07:50:16.852Z,5.92
2023-03-02T07:52:48.341Z,5.85
2023-03-02T07:55:21.723Z,6.06
2023-03-02T07:57:55.115Z,5.85
2023-03-02T08:00:23.595Z,5.89
2023-03-02T08:03:01.799Z,5.56
2023-03-02T08:05:31.338Z,5.82
2023-03-02T08:08:03.265Z,5.82
2023-03-02T08:10:38.714Z,5.91
2023-03-02T08:13:13.457Z,5.99
2023-03-02T08:15:47.538Z,5.74
2023-03-02T08:18:16.616Z,5.97
2023-03-02T08:20:51.300Z,5.90
2023-03-02T08:23:21.980Z,5.94
2023-03-02T08:25:53.271Z,6.18
2023-03-02T08:28:23.312Z,6.28
2023-03-02T08:31:00.064Z,6.40
2023-03-02T08:33:28.865Z,6.41
2023-03-02T08:36:02.096Z,6.31
2023-03-02T08:38:31.656Z,6.48
2023-03-02T08:40:59.474Z,6.32
2023-03-02T08:43:27.356Z,6.01
2023-03-02T08:45:58.130Z,5.94
2023-03-02T08:48:31.602Z,5.84
2023-03-02T08:51:29.200Z,5.91
2023-03-02T08:54:04.961Z,5.77
2023-03-02T08:56:35.826Z,6.00
2023-03-02T08:59:07.031Z,6.19
2023-03-02T09:01:36.780Z,6.66
2023-03-02T09:04:08.584Z,6.28
2023-03-02T09:06:40.960Z,6.44
2023-03-02T09:09:13.042Z,6.56
2023-03-02T09:11:58.919Z,6.40
2023-03-02T09:14:28.316Z,6.31
2023-03-02T09:17:16.739Z,6.71
2023-03-02T09:19:56.730Z,6.82
2023-03-02T09:22:43.003Z,6.81
2023-03-02T09:25:13.986Z,6.76
2023-03-02T09:27:48.989Z,6.60
2023-03-02T09:30:39.046Z,6.67
2023-03-02T09:33:08.209Z,6.83
2023-03-02T09:35:40.311Z,7.14
2023-03-02T09:38:14.276Z,7.22
2023-03-02T09:41:08.239Z,6.99
2023-03-02T09:43:40.708Z,6.94
2023-03-02T09:46:18.485Z,7.27
2023-03-02T09:49:21.665Z,7.15
2023-03-02T09:52:08.666Z,7.36
2023-03-02T09:54:38.238Z,7.28
2023-03-02T09:57:24.154Z,7.17
2023-03-02T10:00:20.524Z,7.43
2023-03-02T10:03:08.188Z,6.89
2023-03-02T10:05:54.398Z,7.48
2023-03-02T10:08:27.298Z,7.55
2023-03-02T10:11:13.490Z,7.51
2023-03-02T10:13:52.615Z,7.24
2023-03-02T10:16:30.335Z,7.16
2023-03-02T10:19:05.604Z,7.38
2023-03-02T10:21:40.099Z,7.45
2023-03-02T10:24:41.488Z,7.25
2023-03-02T10:27:20.864Z,7.39
2023-03-02T10:30:01.452Z,7.33
2023-03-02T10:32:52.666Z,7.23
2023-03-02T10:35:24.040Z,7.65
2023-03-02T10:37:55.495Z,7.91
2023-03-02T10:40:33.553Z,8.03
2023-03-02T10:43:33.614Z,8.09
2023-03-02T10:46:07.849Z,7.84
2023-03-02T10:48:51.860Z,7.58
2023-03-02T10:51:28.551Z,7.84
2023-03-02T10:54:29.023Z,7.81
2023-03-02T10:57:18.443Z,7.53
2023-03-02T10:59:47.464Z,7.97
2023-03-02T11:02:24.552Z,8.00
2023-03-02T11:04:59.549Z,7.77
2023-03-02T11:07:28.968Z,7.92
2023-03-02T11:13:59.440Z,8.11
2023-03-02T11:16:35.352Z,8.29
2023-03-02T11:19:38.257Z,8.03
2023-03-02T11:22:14.810Z,8.09
2023-03-02T11:24:52.396Z,8.24
2023-03-02T11:27:27.477Z,8.42
2023-03-02T11:30:17.262Z,8.68
2023-03-02T11:32:55.262Z,8.19
2023-03-02T11:36:06.810Z,8.32
2023-03-02T11:38:50.382Z,8.18
2023-03-02T11:41:27.436Z,7.89
2023-03-02T11:43:57.001Z,8.15
2023-03-02T11:46:30.829Z,8.13
2023-03-02T11:49:07.473Z,8.21
2023-03-02T11:51:56.672Z,8.22
2023-03-02T11:54:41.666Z,8.41
2023-03-02T11:57:19.819Z,8.45
2023-03-02T11:59:47.680Z,8.43
2023-03-02T12:02:17.133Z,8.53
2023-03-02T12:04:49.043Z,8.56
2023-03-02T12:07:25.858Z,8.22
2023-03-02T12:10:07.621Z,8.41
2023-03-02T12:12:44.680Z,8.29
2023-03-02T12:15:39.726Z,8.63
2023-03-02T12:18:23.078Z,8.84
2023-03-02T12:21:17.716Z,8.52
2023-03-02T12:23:49.095Z,8.35
2023-03-02T12:26:19.981Z,8.65
2023-03-02T12:29:10.719Z,8.67
2023-03-02T12:31:50.757Z,8.57
2023-03-02T12:34:25.042Z,9.09
2023-03-02T12:36:59.089Z,9.48
2023-03-02T12:39:39.190Z,9.06
2023-03-02T12:42:21.783Z,9.39
2023-03-02T12:45:07.803Z,9.49
2023-03-02T12:47:38.399Z,9.66
2023-03-02T12:50:09.426Z,10.06
2023-03-02T12:52:40.935Z,10.52
2023-03-02T12:55:19.527Z,10.30
2023-03-02T12:57:49.678Z,10.53
2023-03-02T13:00:22.959Z,10.11
2023-03-02T13:02:54.971Z,9.91
2023-03-02T13:05:27.440Z,9.60
2023-03-02T13:08:01.409Z,9.35
2023-03-02T13:10:36.294Z,9.30
2023-03-02T13:13:30.229Z,9.58
2023-03-02T13:16:11.963Z,9.60
2023-03-02T13:18:40.807Z,9.85
2023-03-02T13:21:10.804Z,10.13
2023-03-02T13:23:50.940Z,10.77
2023-03-02T13:26:31.681Z,10.65
2023-03-02T13:29:04.748Z,10.44
2023-03-02T13:31:37.639Z,10.70
2023-03-02T13:34:05.688Z,10.70
2023-03-02T13:36:38.744Z,10.30
2023-03-02T13:39:07.826Z,9.84
2023-03-02T13:41:41.642Z,10.29
2023-03-02T13:44:19.877Z,9.59
2023-03-02T13:46:47.676Z,9.00
2023-03-02T13:49:32.738Z,10.14
2023-03-02T13:52:08.338Z,9.85
2023-03-02T13:54:38.333Z,10.08
2023-03-02T13:57:06.168Z,9.98
2023-03-02T13:59:37.257Z,9.92
2023-03-02T14:02:19.941Z,10.29
2023-03-02T14:04:47.808Z,9.94
2023-03-02T14:07:20.845Z,10.06
2023-03-02T14:09:48.974Z,10.08
2023-03-02T14:12:29.740Z,9.99
2023-03-02T14:15:01.355Z,10.40
2023-03-02T14:17:29.585Z,10.30
2023-03-02T14:19:57.591Z,9.94
2023-03-02T14:22:26.681Z,10.15
2023-03-02T14:24:55.930Z,9.85
2023-03-02T14:27:24.836Z,9.89
2023-03-02T14:29:52.678Z,10.01
2023-03-02T14:32:22.135Z,10.37
2023-03-02T14:34:49.984Z,10.07
2023-03-02T14:37:18.859Z,9.95
2023-03-02T14:39:48.516Z,10.09
2023-03-02T14:42:17.395Z,10.01
2023-03-02T14:44:50.189Z,9.68
2023-03-02T14:47:19.750Z,9.19
2023-03-02T14:49:49.019Z,8.68
2023-03-02T14:52:34.959Z,8.45
2023-03-02T14:55:07.915Z,8.14
2023-03-02T14:57:38.740Z,8.15
2023-03-02T15:00:07.603Z,7.90
2023-03-02T15:02:36.058Z,7.87
2023-03-02T15:05:14.699Z,7.67
2023-03-02T15:07:44.355Z,7.47
2023-03-02T15:10:17.502Z,7.36
2023-03-02T15:12:45.710Z,7.30
2023-03-02T15:15:16.736Z,7.17
2023-03-02T15:17:45.023Z,7.25
2023-03-02T15:20:17.356Z,7.38
2023-03-02T15:22:48.055Z,7.18
2023-03-02T15:25:17.532Z,7.10
2023-03-02T15:27:47.491Z,6.93
2023-03-02T15:30:17.950Z,6.74
2023-03-02T15:32:45.987Z,6.75
2023-03-02T15:35:14.678Z,6.72
2023-03-02T15:37:45.716Z,6.61
2023-03-02T15:40:15.476Z,6.64
2023-03-02T15:42:43.986Z,6.56
2023-03-02T15:45:13.855Z,6.47
2023-03-02T15:47:42.998Z,6.42
2023-03-02T15:50:13.284Z,6.38
2023-03-02T15:52:42.676Z,6.33
2023-03-02T15:55:11.287Z,6.32
2023-03-02T15:57:40.389Z,6.26
2023-03-02T16:00:13.792Z,6.12
2023-03-02T16:02:43.750Z,5.93
2023-03-02T16:05:15.451Z,5.72
2023-03-02T16:07:45.596Z,5.50
2023-03-02T16:10:17.462Z,5.33
2023-03-02T16:12:46.032Z,5.18
2023-03-02T16:15:15.055Z,5.04
2023-03-02T16:17:43.044Z,4.93
2023-03-02T16:20:12.016Z,4.80
2023-03-02T16:22:40.407Z,4.68
2023-03-02T16:25:12.130Z,4.56
2023-03-02T16:27:40.681Z,4.43
2023-03-02T16:30:14.952Z,4.28
2023-03-02T16:32:44.397Z,4.20
2023-03-02T16:35:14.752Z,4.16
2023-03-02T16:37:44.686Z,4.02
2023-03-02T16:40:13.236Z,4.00
2023-03-02T16:42:41.886Z,3.96
2023-03-02T16:45:10.441Z,3.99
2023-03-02T16:47:38.286Z,4.09
2023-03-02T16:50:07.071Z,4.18
2023-03-02T16:52:35.966Z,4.25
2023-03-02T16:55:04.618Z,4.25
2023-03-02T16:57:32.909Z,4.28
2023-03-02T17:00:00.805Z,4.32
2023-03-02T17:02:29.646Z,4.31
2023-03-02T17:05:03.335Z,4.31
2023-03-02T17:07:31.897Z,4.29
2023-03-02T17:10:00.676Z,4.30
2023-03-02T17:12:29.486Z,4.23
2023-03-02T17:14:59.374Z,4.40
2023-03-02T17:17:27.534Z,4.34
2023-03-02T17:19:55.897Z,4.47
2023-03-02T17:22:26.697Z,4.40
2023-03-02T17:24:54.943Z,4.46
2023-03-02T17:27:25.983Z,4.55
2023-03-02T17:29:54.660Z,4.77
2023-03-02T17:32:23.355Z,4.78
2023-03-02T17:34:52.601Z,4.66
2023-03-02T17:37:20.438Z,4.57
2023-03-02T17:39:52.543Z,4.74
2023-03-02T17:42:20.498Z,4.82
2023-03-02T17:44:48.369Z,4.75
2023-03-02T17:47:16.517Z,4.78
2023-03-02T17:49:45.939Z,4.77
2023-03-02T17:52:19.510Z,4.74
2023-03-02T17:54:47.884Z,4.74
2023-03-02T17:57:22.061Z,4.79
2023-03-02T17:59:52.886Z,4.75
2023-03-02T18:02:20.738Z,4.77
2023-03-02T18:04:49.452Z,4.73
2023-03-02T18:07:17.816Z,4.74
2023-03-02T18:09:46.263Z,4.76
2023-03-02T18:12:16.104Z,4.69
2023-03-02T18:14:44.690Z,4.78
2023-03-02T18:17:15.259Z,4.74
2023-03-02T18:19:43.367Z,4.77
2023-03-02T18:22:11.526Z,4.77
2023-03-02T18:24:39.711Z,4.68
2023-03-02T18:27:11.002Z,4.73
2023-03-02T18:29:40.467Z,4.64
2023-03-02T18:32:08.575Z,4.65
2023-03-02T18:34:40.323Z,4.64
2023-03-02T18:37:08.228Z,4.58
2023-03-02T18:39:37.868Z,4.62
2023-03-02T18:42:07.023Z,4.60
2023-03-02T18:44:35.175Z,4.55
2023-03-02T18:47:04.088Z,4.53
2023-03-02T18:49:32.137Z,4.46
2023-03-02T18:52:07.027Z,4.27
2023-03-02T18:54:35.047Z,4.25
2023-03-02T18:57:03.800Z,4.27
2023-03-02T18:59:34.284Z,4.27
2023-03-02T19:02:08.519Z,4.17
2023-03-02T19:04:36.371Z,4.16
2023-03-02T19:07:09.260Z,4.15
2023-03-02T19:09:37.506Z,4.19
2023-03-02T19:12:09.623Z,4.01
2023-03-02T19:14:39.735Z,4.08
2023-03-02T19:17:07.709Z,4.09
2023-03-02T19:19:35.761Z,4.08
2023-03-02T19:22:06.572Z,3.97
2023-03-02T19:24:35.030Z,4.03
2023-03-02T19:27:03.120Z,4.05
2023-03-02T19:29:34.830Z,4.04
2023-03-02T19:32:02.758Z,3.95
2023-03-02T19:34:30.840Z,3.96
2023-03-02T19:36:58.824Z,3.91
2023-03-02T19:39:27.463Z,3.83
2023-03-02T19:41:56.039Z,3.67
2023-03-02T19:44:25.878Z,3.62
2023-03-02T19:46:53.698Z,3.51
2023-03-02T19:49:21.478Z,3.41
2023-03-02T19:51:50.362Z,3.18
2023-03-02T19:54:18.137Z,3.10
2023-03-02T19:56:53.299Z,2.99
2023-03-02T19:59:22.223Z,2.96
2023-03-02T20:01:51.584Z,2.93
2023-03-02T20:04:23.167Z,2.81
2023-03-02T20:06:51.098Z,2.81
2023-03-02T20:09:20.518Z,2.87
2023-03-02T20:11:50.916Z,3.10
2023-03-02T20:14:31.574Z,3.29
2023-03-02T20:17:02.571Z,3.35
2023-03-02T20:19:31.766Z,3.31
2023-03-02T20:21:59.624Z,3.29
2023-03-02T20:24:30.756Z,3.21
2023-03-02T20:26:58.682Z,3.06
2023-03-02T20:29:27.061Z,3.05
2023-03-02T20:31:55.005Z,3.09
2023-03-02T20:34:22.693Z,3.23
2023-03-02T20:36:50.372Z,3.27
2023-03-02T20:39:24.319Z,3.43
2023-03-02T20:41:52.345Z,3.37
2023-03-02T20:44:20.742Z,3.61
2023-03-02T20:46:54.233Z,3.56
2023-03-02T20:49:23.707Z,3.51
2023-03-02T20:51:54.823Z,3.34
2023-03-02T20:54:24.558Z,3.23
2023-03-02T20:56:52.244Z,3.09
2023-03-02T20:59:21.643Z,2.97
2023-03-02T21:01:49.920Z,2.95
2023-03-02T21:04:17.879Z,2.98
2023-03-02T21:06:47.305Z,3.01
2023-03-02T21:09:15.577Z,3.03
2023-03-02T21:11:44.970Z,2.99
2023-03-02T21:14:16.269Z,3.05
2023-03-02T21:16:44.347Z,3.06
2023-03-02T21:19:18.203Z,3.09
2023-03-02T21:21:46.429Z,3.12
2023-03-02T21:24:18.453Z,3.09
2023-03-02T21:26:46.970Z,3.10
2023-03-02T21:29:15.136Z,3.07
2023-03-02T21:31:43.990Z,3.16
2023-03-02T21:34:12.675Z,3.30
2023-03-02T21:36:40.688Z,3.33
2023-03-02T21:39:08.545Z,3.28
2023-03-02T21:41:36.441Z,3.24
2023-03-02T21:44:05.798Z,3.24
2023-03-02T21:46:34.360Z,3.37
2023-03-02T21:49:02.302Z,3.38
2023-03-02T21:51:30.439Z,3.27
2023-03-02T21:53:58.164Z,3.24
2023-03-02T21:56:25.916Z,3.21
2023-03-02T21:58:59.887Z,3.18
2023-03-02T22:01:29.881Z,3.21
2023-03-02T22:03:57.564Z,3.13
2023-03-02T22:06:26.981Z,3.13
2023-03-02T22:08:55.960Z,3.17
2023-03-02T22:11:33.132Z,3.22
2023-03-02T22:14:02.164Z,3.15
2023-03-02T22:16:38.737Z,3.08
2023-03-02T22:19:31.376Z,3.07
2023-03-02T22:22:00.327Z,3.22
2023-03-02T22:24:33.815Z,3.23
2023-03-02T22:27:20.330Z,3.25
2023-03-02T22:29:48.846Z,3.14
2023-03-02T22:32:21.429Z,3.01
2023-03-02T22:34:53.220Z,3.09
2023-03-02T22:37:26.381Z,3.11
2023-03-02T22:39:55.687Z,3.05
2023-03-02T22:42:27.291Z,3.01
2023-03-02T22:45:14.971Z,3.01
2023-03-02T22:47:44.004Z,2.95
2023-03-02T22:50:24.920Z,2.95
2023-03-02T22:52:53.288Z,2.86
2023-03-02T22:55:27.263Z,2.91
2023-03-02T22:57:57.163Z,2.87
2023-03-02T23:00:33.934Z,2.84
2023-03-02T23:03:20.321Z,2.84
2023-03-02T23:05:51.117Z,2.85
2023-03-02T23:08:25.351Z,2.94
2023-03-02T23:10:55.116Z,2.96
2023-03-02T23:13:26.189Z,2.89
2023-03-02T23:15:55.494Z,2.91
2023-03-02T23:18:27.426Z,2.93
2023-03-02T23:20:55.228Z,2.94
2023-03-02T23:23:24.474Z,2.98
2023-03-02T23:25:52.193Z,2.95
2023-03-02T23:28:19.852Z,2.93
2023-03-02T23:30:48.124Z,2.87
2023-03-02T23:33:15.963Z,2.76
2023-03-02T23:35:43.733Z,2.78
2023-03-02T23:38:11.602Z,2.73
2023-03-02T23:40:41.764Z,2.64
2023-03-02T23:43:13.708Z,2.46
2023-03-02T23:45:42.425Z,2.31
2023-03-02T23:48:11.321Z,2.34
2023-03-02T23:50:39.629Z,2.34
2023-03-02T23:53:07.326Z,2.34
2023-03-02T23:55:35.329Z,2.41
2023-03-02T23:58:02.989Z,2.39
